sensor_id;sensor_type;location;lat;lon;timestamp;temperature;humidity
82231;DHT22;71832;45.138;9.816;2023-07-29T00:02:15;23.00;74.60
82231;DHT22;71832;45.138;9.816;2023-07-29T00:04:44;22.90;75.30
82231;DHT22;71832;45.138;9.816;2023-07-29T00:07:12;22.80;75.70
82231;DHT22;71832;45.138;9.816;2023-07-29T00:09:40;22.80;76.20
82231;DHT22;71832;45.138;9.816;2023-07-29T00:12:08;22.90;76.00
82231;DHT22;71832;45.138;9.816;2023-07-29T00:14:37;22.90;76.10
82231;DHT22;71832;45.138;9.816;2023-07-29T00:17:04;22.90;76.20
82231;DHT22;71832;45.138;9.816;2023-07-29T00:19:32;22.90;75.60
82231;DHT22;71832;45.138;9.816;2023-07-29T00:22:01;22.90;75.50
82231;DHT22;71832;45.138;9.816;2023-07-29T00:24:29;22.80;75.80
82231;DHT22;71832;45.138;9.816;2023-07-29T00:26:58;22.80;76.10
82231;DHT22;71832;45.138;9.816;2023-07-29T00:29:26;22.70;76.40
82231;DHT22;71832;45.138;9.816;2023-07-29T00:31:55;22.80;76.50
82231;DHT22;71832;45.138;9.816;2023-07-29T00:34:24;22.70;77.00
82231;DHT22;71832;45.138;9.816;2023-07-29T00:36:52;22.70;77.20
82231;DHT22;71832;45.138;9.816;2023-07-29T00:39:20;22.60;77.30
82231;DHT22;71832;45.138;9.816;2023-07-29T00:41:48;22.60;77.20
82231;DHT22;71832;45.138;9.816;2023-07-29T00:44:16;22.60;77.60
82231;DHT22;71832;45.138;9.816;2023-07-29T00:46:45;22.60;77.60
82231;DHT22;71832;45.138;9.816;2023-07-29T00:49:14;22.50;77.70
82231;DHT22;71832;45.138;9.816;2023-07-29T00:51:43;22.50;77.80
82231;DHT22;71832;45.138;9.816;2023-07-29T00:54:11;22.60;77.50
82231;DHT22;71832;45.138;9.816;2023-07-29T00:56:39;22.60;77.30
82231;DHT22;71832;45.138;9.816;2023-07-29T00:59:07;22.70;78.10
82231;DHT22;71832;45.138;9.816;2023-07-29T01:01:35;22.70;78.20
82231;DHT22;71832;45.138;9.816;2023-07-29T01:04:03;22.70;77.90
82231;DHT22;71832;45.138;9.816;2023-07-29T01:06:57;22.70;77.70
82231;DHT22;71832;45.138;9.816;2023-07-29T01:12:35;22.70;78.00
82231;DHT22;71832;45.138;9.816;2023-07-29T01:17:36;22.70;78.40
82231;DHT22;71832;45.138;9.816;2023-07-29T01:20:09;22.70;78.10
82231;DHT22;71832;45.138;9.816;2023-07-29T01:22:38;22.70;77.60
82231;DHT22;71832;45.138;9.816;2023-07-29T01:25:07;22.70;77.50
82231;DHT22;71832;45.138;9.816;2023-07-29T01:27:35;22.60;77.90
82231;DHT22;71832;45.138;9.816;2023-07-29T01:30:04;22.60;78.10
82231;DHT22;71832;45.138;9.816;2023-07-29T01:37:59;22.60;78.40
82231;DHT22;71832;45.138;9.816;2023-07-29T01:40:29;22.60;78.20
82231;DHT22;71832;45.138;9.816;2023-07-29T01:42:58;22.60;78.10
82231;DHT22;71832;45.138;9.816;2023-07-29T01:45:26;22.60;78.00
82231;DHT22;71832;45.138;9.816;2023-07-29T01:47:54;22.60;77.80
82231;DHT22;71832;45.138;9.816;2023-07-29T01:50:22;22.60;78.90
82231;DHT22;71832;45.138;9.816;2023-07-29T01:52:50;22.60;78.30
82231;DHT22;71832;45.138;9.816;2023-07-29T01:55:19;22.60;78.80
82231;DHT22;71832;45.138;9.816;2023-07-29T01:57:47;22.50;78.80
82231;DHT22;71832;45.138;9.816;2023-07-29T02:00:15;22.50;78.90
82231;DHT22;71832;45.138;9.816;2023-07-29T02:02:43;22.30;79.30
82231;DHT22;71832;45.138;9.816;2023-07-29T02:05:10;22.20;79.60
82231;DHT22;71832;45.138;9.816;2023-07-29T02:07:38;22.20;79.70
82231;DHT22;71832;45.138;9.816;2023-07-29T02:10:07;22.20;79.70
82231;DHT22;71832;45.138;9.816;2023-07-29T02:12:35;22.20;80.00
82231;DHT22;71832;45.138;9.816;2023-07-29T02:15:04;22.20;80.10
82231;DHT22;71832;45.138;9.816;2023-07-29T02:17:34;22.20;80.20
82231;DHT22;71832;45.138;9.816;2023-07-29T02:20:03;22.20;80.30
82231;DHT22;71832;45.138;9.816;2023-07-29T02:22:32;22.20;80.50
82231;DHT22;71832;45.138;9.816;2023-07-29T02:25:00;22.20;80.20
82231;DHT22;71832;45.138;9.816;2023-07-29T02:27:28;22.20;80.40
82231;DHT22;71832;45.138;9.816;2023-07-29T02:29:57;22.20;80.60
82231;DHT22;71832;45.138;9.816;2023-07-29T02:32:26;22.30;80.10
82231;DHT22;71832;45.138;9.816;2023-07-29T02:34:57;22.30;80.30
82231;DHT22;71832;45.138;9.816;2023-07-29T02:37:32;22.40;79.70
82231;DHT22;71832;45.138;9.816;2023-07-29T02:40:00;22.50;79.20
82231;DHT22;71832;45.138;9.816;2023-07-29T02:42:27;22.50;79.20
82231;DHT22;71832;45.138;9.816;2023-07-29T02:44:55;22.50;79.50
82231;DHT22;71832;45.138;9.816;2023-07-29T02:47:23;22.50;79.70
82231;DHT22;71832;45.138;9.816;2023-07-29T02:49:58;22.50;79.80
82231;DHT22;71832;45.138;9.816;2023-07-29T02:52:28;22.40;79.70
82231;DHT22;71832;45.138;9.816;2023-07-29T02:54:56;22.30;80.00
82231;DHT22;71832;45.138;9.816;2023-07-29T02:57:27;22.20;80.50
82231;DHT22;71832;45.138;9.816;2023-07-29T02:59:57;22.10;80.50
82231;DHT22;71832;45.138;9.816;2023-07-29T03:02:26;22.10;80.70
82231;DHT22;71832;45.138;9.816;2023-07-29T03:04:54;22.10;81.00
82231;DHT22;71832;45.138;9.816;2023-07-29T03:07:22;22.10;81.00
82231;DHT22;71832;45.138;9.816;2023-07-29T03:09:51;22.10;81.20
82231;DHT22;71832;45.138;9.816;2023-07-29T03:12:19;22.10;81.20
82231;DHT22;71832;45.138;9.816;2023-07-29T03:14:49;22.10;81.50
82231;DHT22;71832;45.138;9.816;2023-07-29T03:17:17;22.10;81.60
82231;DHT22;71832;45.138;9.816;2023-07-29T03:19:46;22.10;81.60
82231;DHT22;71832;45.138;9.816;2023-07-29T03:22:14;22.20;81.50
82231;DHT22;71832;45.138;9.816;2023-07-29T03:24:43;22.20;81.50
82231;DHT22;71832;45.138;9.816;2023-07-29T03:27:11;22.30;81.20
82231;DHT22;71832;45.138;9.816;2023-07-29T03:29:40;22.30;81.30
82231;DHT22;71832;45.138;9.816;2023-07-29T03:32:08;22.30;81.00
82231;DHT22;71832;45.138;9.816;2023-07-29T03:34:40;22.40;81.20
82231;DHT22;71832;45.138;9.816;2023-07-29T03:37:09;22.50;81.10
82231;DHT22;71832;45.138;9.816;2023-07-29T03:39:38;22.50;80.90
82231;DHT22;71832;45.138;9.816;2023-07-29T03:42:06;22.50;81.00
82231;DHT22;71832;45.138;9.816;2023-07-29T03:44:34;22.40;81.50
82231;DHT22;71832;45.138;9.816;2023-07-29T03:47:02;22.30;82.10
82231;DHT22;71832;45.138;9.816;2023-07-29T03:49:31;22.30;82.20
82231;DHT22;71832;45.138;9.816;2023-07-29T03:51:59;22.30;81.70
82231;DHT22;71832;45.138;9.816;2023-07-29T03:54:26;22.30;81.70
82231;DHT22;71832;45.138;9.816;2023-07-29T03:56:56;22.40;81.60
82231;DHT22;71832;45.138;9.816;2023-07-29T03:59:24;22.40;81.90
82231;DHT22;71832;45.138;9.816;2023-07-29T04:01:53;22.40;82.30
82231;DHT22;71832;45.138;9.816;2023-07-29T04:04:21;22.30;82.40
82231;DHT22;71832;45.138;9.816;2023-07-29T04:06:50;22.30;81.90
82231;DHT22;71832;45.138;9.816;2023-07-29T04:09:18;22.30;82.60
82231;DHT22;71832;45.138;9.816;2023-07-29T04:11:47;22.30;82.20
82231;DHT22;71832;45.138;9.816;2023-07-29T04:14:15;22.30;82.00
82231;DHT22;71832;45.138;9.816;2023-07-29T04:16:44;22.40;82.00
82231;DHT22;71832;45.138;9.816;2023-07-29T04:19:13;22.40;82.50
82231;DHT22;71832;45.138;9.816;2023-07-29T04:21:41;22.30;82.40
82231;DHT22;71832;45.138;9.816;2023-07-29T04:24:09;22.40;82.10
82231;DHT22;71832;45.138;9.816;2023-07-29T04:26:38;22.50;82.80
82231;DHT22;71832;45.138;9.816;2023-07-29T04:29:06;22.50;82.80
82231;DHT22;71832;45.138;9.816;2023-07-29T04:31:35;22.50;83.10
82231;DHT22;71832;45.138;9.816;2023-07-29T04:34:04;22.40;83.90
82231;DHT22;71832;45.138;9.816;2023-07-29T04:36:31;22.50;84.50
82231;DHT22;71832;45.138;9.816;2023-07-29T04:38:59;22.50;84.20
82231;DHT22;71832;45.138;9.816;2023-07-29T04:41:27;22.50;83.90
82231;DHT22;71832;45.138;9.816;2023-07-29T04:43:56;22.50;83.70
82231;DHT22;71832;45.138;9.816;2023-07-29T04:46:25;22.50;83.50
82231;DHT22;71832;45.138;9.816;2023-07-29T04:48:53;22.50;83.70
82231;DHT22;71832;45.138;9.816;2023-07-29T04:51:22;22.60;83.70
82231;DHT22;71832;45.138;9.816;2023-07-29T04:53:50;22.50;84.10
82231;DHT22;71832;45.138;9.816;2023-07-29T04:56:17;22.50;84.60
82231;DHT22;71832;45.138;9.816;2023-07-29T04:58:46;22.50;85.00
82231;DHT22;71832;45.138;9.816;2023-07-29T05:01:15;22.50;85.30
82231;DHT22;71832;45.138;9.816;2023-07-29T05:03:43;22.50;84.80
82231;DHT22;71832;45.138;9.816;2023-07-29T05:06:11;22.50;85.10
82231;DHT22;71832;45.138;9.816;2023-07-29T05:08:40;22.50;85.40
82231;DHT22;71832;45.138;9.816;2023-07-29T05:11:08;22.50;85.40
82231;DHT22;71832;45.138;9.816;2023-07-29T05:13:37;22.50;85.40
82231;DHT22;71832;45.138;9.816;2023-07-29T05:16:05;22.50;86.00
82231;DHT22;71832;45.138;9.816;2023-07-29T05:18:33;22.60;86.10
82231;DHT22;71832;45.138;9.816;2023-07-29T05:21:01;22.60;85.40
82231;DHT22;71832;45.138;9.816;2023-07-29T05:23:30;22.70;85.40
82231;DHT22;71832;45.138;9.816;2023-07-29T05:25:58;22.80;85.00
82231;DHT22;71832;45.138;9.816;2023-07-29T05:28:26;22.80;84.60
82231;DHT22;71832;45.138;9.816;2023-07-29T05:30:54;22.90;84.50
82231;DHT22;71832;45.138;9.816;2023-07-29T05:33:23;23.00;84.00
82231;DHT22;71832;45.138;9.816;2023-07-29T05:35:51;23.00;83.20
82231;DHT22;71832;45.138;9.816;2023-07-29T05:38:19;23.10;81.60
82231;DHT22;71832;45.138;9.816;2023-07-29T05:40:49;23.20;81.00
82231;DHT22;71832;45.138;9.816;2023-07-29T05:43:17;23.30;81.10
82231;DHT22;71832;45.138;9.816;2023-07-29T05:45:46;23.40;81.20
82231;DHT22;71832;45.138;9.816;2023-07-29T05:48:14;23.50;81.30
82231;DHT22;71832;45.138;9.816;2023-07-29T05:50:42;23.60;80.50
82231;DHT22;71832;45.138;9.816;2023-07-29T05:53:09;23.70;80.70
82231;DHT22;71832;45.138;9.816;2023-07-29T05:55:37;23.80;80.80
82231;DHT22;71832;45.138;9.816;2023-07-29T05:58:06;23.90;80.80
82231;DHT22;71832;45.138;9.816;2023-07-29T06:00:34;24.00;79.80
82231;DHT22;71832;45.138;9.816;2023-07-29T06:03:03;24.00;79.80
82231;DHT22;71832;45.138;9.816;2023-07-29T06:05:32;24.10;80.20
82231;DHT22;71832;45.138;9.816;2023-07-29T06:08:00;24.20;80.20
82231;DHT22;71832;45.138;9.816;2023-07-29T06:10:29;24.20;78.80
82231;DHT22;71832;45.138;9.816;2023-07-29T06:12:58;24.20;77.30
82231;DHT22;71832;45.138;9.816;2023-07-29T06:15:27;24.20;77.50
82231;DHT22;71832;45.138;9.816;2023-07-29T06:17:55;24.20;77.80
82231;DHT22;71832;45.138;9.816;2023-07-29T06:20:24;24.30;78.30
82231;DHT22;71832;45.138;9.816;2023-07-29T06:22:53;24.40;78.40
82231;DHT22;71832;45.138;9.816;2023-07-29T06:25:22;24.40;78.30
82231;DHT22;71832;45.138;9.816;2023-07-29T06:27:51;24.40;78.20
82231;DHT22;71832;45.138;9.816;2023-07-29T06:30:18;24.50;78.20
82231;DHT22;71832;45.138;9.816;2023-07-29T06:32:46;24.60;77.40
82231;DHT22;71832;45.138;9.816;2023-07-29T06:35:15;24.70;76.50
82231;DHT22;71832;45.138;9.816;2023-07-29T06:37:44;24.70;77.40
82231;DHT22;71832;45.138;9.816;2023-07-29T06:40:13;24.70;76.00
82231;DHT22;71832;45.138;9.816;2023-07-29T06:42:41;24.80;75.80
82231;DHT22;71832;45.138;9.816;2023-07-29T06:45:09;24.80;75.90
82231;DHT22;71832;45.138;9.816;2023-07-29T06:47:37;24.80;75.30
82231;DHT22;71832;45.138;9.816;2023-07-29T06:50:05;24.90;75.10
82231;DHT22;71832;45.138;9.816;2023-07-29T06:52:33;25.00;74.80
82231;DHT22;71832;45.138;9.816;2023-07-29T06:55:01;25.00;75.20
82231;DHT22;71832;45.138;9.816;2023-07-29T06:57:28;25.00;74.80
82231;DHT22;71832;45.138;9.816;2023-07-29T06:59:56;25.00;74.50
82231;DHT22;71832;45.138;9.816;2023-07-29T07:02:25;25.00;73.40
82231;DHT22;71832;45.138;9.816;2023-07-29T07:04:53;25.00;73.60
82231;DHT22;71832;45.138;9.816;2023-07-29T07:07:21;25.00;74.10
82231;DHT22;71832;45.138;9.816;2023-07-29T07:09:49;25.20;73.60
82231;DHT22;71832;45.138;9.816;2023-07-29T07:12:18;25.30;72.90
82231;DHT22;71832;45.138;9.816;2023-07-29T07:14:47;25.40;72.50
82231;DHT22;71832;45.138;9.816;2023-07-29T07:17:15;25.50;71.90
82231;DHT22;71832;45.138;9.816;2023-07-29T07:19:44;25.60;71.00
82231;DHT22;71832;45.138;9.816;2023-07-29T07:22:13;25.70;70.10
82231;DHT22;71832;45.138;9.816;2023-07-29T07:24:41;25.80;69.70
82231;DHT22;71832;45.138;9.816;2023-07-29T07:27:10;25.80;69.70
82231;DHT22;71832;45.138;9.816;2023-07-29T07:29:39;25.80;68.70
82231;DHT22;71832;45.138;9.816;2023-07-29T07:32:08;25.90;68.40
82231;DHT22;71832;45.138;9.816;2023-07-29T07:34:36;26.00;68.60
82231;DHT22;71832;45.138;9.816;2023-07-29T07:37:05;26.00;69.30
82231;DHT22;71832;45.138;9.816;2023-07-29T07:39:34;26.10;70.30
82231;DHT22;71832;45.138;9.816;2023-07-29T07:42:02;26.20;69.00
82231;DHT22;71832;45.138;9.816;2023-07-29T07:44:31;26.40;67.70
82231;DHT22;71832;45.138;9.816;2023-07-29T07:47:00;26.50;67.20
82231;DHT22;71832;45.138;9.816;2023-07-29T07:49:28;26.60;66.90
82231;DHT22;71832;45.138;9.816;2023-07-29T07:51:57;26.60;66.00
82231;DHT22;71832;45.138;9.816;2023-07-29T07:54:26;26.70;65.80
82231;DHT22;71832;45.138;9.816;2023-07-29T07:56:54;26.80;66.80
82231;DHT22;71832;45.138;9.816;2023-07-29T07:59:23;26.90;65.90
82231;DHT22;71832;45.138;9.816;2023-07-29T08:01:52;27.00;65.60
82231;DHT22;71832;45.138;9.816;2023-07-29T08:04:20;27.10;64.60
82231;DHT22;71832;45.138;9.816;2023-07-29T08:06:49;27.20;64.70
82231;DHT22;71832;45.138;9.816;2023-07-29T08:09:17;27.30;64.50
82231;DHT22;71832;45.138;9.816;2023-07-29T08:11:47;27.40;63.90
82231;DHT22;71832;45.138;9.816;2023-07-29T08:14:16;27.40;63.60
82231;DHT22;71832;45.138;9.816;2023-07-29T08:16:44;27.50;63.20
82231;DHT22;71832;45.138;9.816;2023-07-29T08:19:13;27.50;63.80
82231;DHT22;71832;45.138;9.816;2023-07-29T08:21:42;27.50;63.60
82231;DHT22;71832;45.138;9.816;2023-07-29T08:24:11;27.50;63.50
82231;DHT22;71832;45.138;9.816;2023-07-29T08:26:39;27.60;64.50
82231;DHT22;71832;45.138;9.816;2023-07-29T08:29:08;27.60;63.20
82231;DHT22;71832;45.138;9.816;2023-07-29T08:31:37;27.60;64.10
82231;DHT22;71832;45.138;9.816;2023-07-29T08:34:05;27.60;63.80
82231;DHT22;71832;45.138;9.816;2023-07-29T08:36:34;27.70;62.90
82231;DHT22;71832;45.138;9.816;2023-07-29T08:39:03;27.70;63.10
82231;DHT22;71832;45.138;9.816;2023-07-29T08:41:39;27.80;62.50
82231;DHT22;71832;45.138;9.816;2023-07-29T08:44:21;27.80;63.00
82231;DHT22;71832;45.138;9.816;2023-07-29T08:46:51;27.90;62.00
82231;DHT22;71832;45.138;9.816;2023-07-29T08:49:21;27.80;62.70
82231;DHT22;71832;45.138;9.816;2023-07-29T08:51:50;27.90;62.30
82231;DHT22;71832;45.138;9.816;2023-07-29T08:54:20;28.00;62.60
82231;DHT22;71832;45.138;9.816;2023-07-29T08:56:49;28.00;61.80
82231;DHT22;71832;45.138;9.816;2023-07-29T08:59:19;28.10;62.80
82231;DHT22;71832;45.138;9.816;2023-07-29T09:01:48;28.20;62.40
82231;DHT22;71832;45.138;9.816;2023-07-29T09:04:16;28.30;62.50
82231;DHT22;71832;45.138;9.816;2023-07-29T09:06:45;28.30;61.80
82231;DHT22;71832;45.138;9.816;2023-07-29T09:09:15;28.10;61.20
82231;DHT22;71832;45.138;9.816;2023-07-29T09:11:44;27.90;61.30
82231;DHT22;71832;45.138;9.816;2023-07-29T09:14:14;27.80;61.30
82231;DHT22;71832;45.138;9.816;2023-07-29T09:16:43;27.80;62.20
82231;DHT22;71832;45.138;9.816;2023-07-29T09:19:12;27.90;62.60
82231;DHT22;71832;45.138;9.816;2023-07-29T09:21:42;27.90;61.40
82231;DHT22;71832;45.138;9.816;2023-07-29T09:24:10;28.00;62.60
82231;DHT22;71832;45.138;9.816;2023-07-29T09:26:41;28.00;62.40
82231;DHT22;71832;45.138;9.816;2023-07-29T09:29:16;28.00;60.70
82231;DHT22;71832;45.138;9.816;2023-07-29T09:31:50;27.90;61.50
82231;DHT22;71832;45.138;9.816;2023-07-29T09:34:18;28.00;61.50
82231;DHT22;71832;45.138;9.816;2023-07-29T09:36:51;28.10;61.00
82231;DHT22;71832;45.138;9.816;2023-07-29T09:39:19;28.20;60.80
82231;DHT22;71832;45.138;9.816;2023-07-29T09:41:51;28.30;61.00
82231;DHT22;71832;45.138;9.816;2023-07-29T09:44:19;28.30;60.20
82231;DHT22;71832;45.138;9.816;2023-07-29T09:46:48;28.40;60.10
82231;DHT22;71832;45.138;9.816;2023-07-29T09:49:17;28.50;60.20
82231;DHT22;71832;45.138;9.816;2023-07-29T09:51:45;28.50;61.60
82231;DHT22;71832;45.138;9.816;2023-07-29T09:54:13;28.60;60.80
82231;DHT22;71832;45.138;9.816;2023-07-29T09:56:42;28.70;60.20
82231;DHT22;71832;45.138;9.816;2023-07-29T09:59:11;28.80;60.00
82231;DHT22;71832;45.138;9.816;2023-07-29T10:01:40;28.90;60.00
82231;DHT22;71832;45.138;9.816;2023-07-29T10:04:09;29.00;61.70
82231;DHT22;71832;45.138;9.816;2023-07-29T10:06:39;29.10;60.30
82231;DHT22;71832;45.138;9.816;2023-07-29T10:09:07;29.10;58.80
82231;DHT22;71832;45.138;9.816;2023-07-29T10:11:36;29.20;58.80
82231;DHT22;71832;45.138;9.816;2023-07-29T10:14:04;29.20;60.10
82231;DHT22;71832;45.138;9.816;2023-07-29T10:16:34;29.20;58.90
82231;DHT22;71832;45.138;9.816;2023-07-29T10:19:02;29.20;61.00
82231;DHT22;71832;45.138;9.816;2023-07-29T10:21:31;29.30;59.30
82231;DHT22;71832;45.138;9.816;2023-07-29T10:24:03;29.30;59.30
82231;DHT22;71832;45.138;9.816;2023-07-29T10:26:33;29.20;57.70
82231;DHT22;71832;45.138;9.816;2023-07-29T10:29:03;29.20;57.60
82231;DHT22;71832;45.138;9.816;2023-07-29T10:31:33;29.10;57.40
82231;DHT22;71832;45.138;9.816;2023-07-29T10:34:02;29.10;58.00
82231;DHT22;71832;45.138;9.816;2023-07-29T10:36:32;29.10;57.70
82231;DHT22;71832;45.138;9.816;2023-07-29T10:39:01;29.20;57.40
82231;DHT22;71832;45.138;9.816;2023-07-29T10:41:58;29.20;57.50
82231;DHT22;71832;45.138;9.816;2023-07-29T10:56:05;29.50;56.90
82231;DHT22;71832;45.138;9.816;2023-07-29T10:58:36;29.60;56.00
82231;DHT22;71832;45.138;9.816;2023-07-29T11:01:13;29.70;56.80
82231;DHT22;71832;45.138;9.816;2023-07-29T11:04:22;29.70;55.30
82231;DHT22;71832;45.138;9.816;2023-07-29T11:15:20;29.70;55.80
82231;DHT22;71832;45.138;9.816;2023-07-29T11:17:51;29.90;55.10
82231;DHT22;71832;45.138;9.816;2023-07-29T11:20:19;29.80;54.80
82231;DHT22;71832;45.138;9.816;2023-07-29T11:22:47;29.90;54.30
82231;DHT22;71832;45.138;9.816;2023-07-29T11:25:16;29.80;54.90
82231;DHT22;71832;45.138;9.816;2023-07-29T11:27:45;29.80;54.80
82231;DHT22;71832;45.138;9.816;2023-07-29T11:30:15;29.90;55.10
82231;DHT22;71832;45.138;9.816;2023-07-29T11:32:45;30.00;53.70
82231;DHT22;71832;45.138;9.816;2023-07-29T11:35:15;29.90;54.00
82231;DHT22;71832;45.138;9.816;2023-07-29T11:37:46;29.90;53.40
82231;DHT22;71832;45.138;9.816;2023-07-29T11:40:15;30.00;53.70
82231;DHT22;71832;45.138;9.816;2023-07-29T11:42:44;30.00;54.40
82231;DHT22;71832;45.138;9.816;2023-07-29T11:45:13;30.00;53.40
82231;DHT22;71832;45.138;9.816;2023-07-29T11:47:41;30.10;52.90
82231;DHT22;71832;45.138;9.816;2023-07-29T11:50:10;30.00;54.40
82231;DHT22;71832;45.138;9.816;2023-07-29T11:52:40;29.90;54.70
82231;DHT22;71832;45.138;9.816;2023-07-29T11:55:08;29.70;55.60
82231;DHT22;71832;45.138;9.816;2023-07-29T11:57:37;29.80;56.80
82231;DHT22;71832;45.138;9.816;2023-07-29T12:00:07;29.90;54.10
82231;DHT22;71832;45.138;9.816;2023-07-29T12:02:38;30.00;52.90
82231;DHT22;71832;45.138;9.816;2023-07-29T12:05:07;30.10;54.40
82231;DHT22;71832;45.138;9.816;2023-07-29T12:07:38;30.30;53.70
82231;DHT22;71832;45.138;9.816;2023-07-29T12:10:07;30.40;53.40
82231;DHT22;71832;45.138;9.816;2023-07-29T12:12:46;30.60;53.30
82231;DHT22;71832;45.138;9.816;2023-07-29T12:15:27;30.70;51.80
82231;DHT22;71832;45.138;9.816;2023-07-29T12:17:57;30.70;52.80
82231;DHT22;71832;45.138;9.816;2023-07-29T12:20:26;30.70;52.10
82231;DHT22;71832;45.138;9.816;2023-07-29T12:22:56;30.60;52.40
82231;DHT22;71832;45.138;9.816;2023-07-29T12:25:27;30.70;52.20
82231;DHT22;71832;45.138;9.816;2023-07-29T12:27:55;30.70;52.60
82231;DHT22;71832;45.138;9.816;2023-07-29T12:30:25;30.80;51.80
82231;DHT22;71832;45.138;9.816;2023-07-29T12:32:53;30.90;49.80
82231;DHT22;71832;45.138;9.816;2023-07-29T12:35:20;31.00;51.80
82231;DHT22;71832;45.138;9.816;2023-07-29T12:37:59;31.10;51.50
82231;DHT22;71832;45.138;9.816;2023-07-29T12:40:27;31.20;50.90
82231;DHT22;71832;45.138;9.816;2023-07-29T12:42:56;31.30;50.30
82231;DHT22;71832;45.138;9.816;2023-07-29T12:45:25;31.30;50.60
82231;DHT22;71832;45.138;9.816;2023-07-29T12:47:54;31.40;51.00
82231;DHT22;71832;45.138;9.816;2023-07-29T12:50:22;31.40;48.90
82231;DHT22;71832;45.138;9.816;2023-07-29T12:52:50;31.40;50.20
82231;DHT22;71832;45.138;9.816;2023-07-29T12:55:19;31.40;48.70
82231;DHT22;71832;45.138;9.816;2023-07-29T12:57:49;31.40;50.80
82231;DHT22;71832;45.138;9.816;2023-07-29T13:00:18;31.50;50.70
82231;DHT22;71832;45.138;9.816;2023-07-29T13:02:45;31.50;50.60
82231;DHT22;71832;45.138;9.816;2023-07-29T13:05:13;31.60;51.00
82231;DHT22;71832;45.138;9.816;2023-07-29T13:07:42;31.50;50.10
82231;DHT22;71832;45.138;9.816;2023-07-29T13:10:10;31.40;50.80
82231;DHT22;71832;45.138;9.816;2023-07-29T13:12:39;31.20;53.50
82231;DHT22;71832;45.138;9.816;2023-07-29T13:15:08;31.00;53.30
82231;DHT22;71832;45.138;9.816;2023-07-29T13:17:36;31.00;54.10
82231;DHT22;71832;45.138;9.816;2023-07-29T13:20:04;30.90;53.00
82231;DHT22;71832;45.138;9.816;2023-07-29T13:22:32;30.90;51.20
82231;DHT22;71832;45.138;9.816;2023-07-29T13:24:59;30.90;53.30
82231;DHT22;71832;45.138;9.816;2023-07-29T13:27:27;31.00;53.10
82231;DHT22;71832;45.138;9.816;2023-07-29T13:29:55;31.20;53.30
82231;DHT22;71832;45.138;9.816;2023-07-29T13:32:23;31.40;52.20
82231;DHT22;71832;45.138;9.816;2023-07-29T13:34:50;31.60;51.80
82231;DHT22;71832;45.138;9.816;2023-07-29T13:37:18;31.70;50.90
82231;DHT22;71832;45.138;9.816;2023-07-29T13:39:47;31.90;50.20
82231;DHT22;71832;45.138;9.816;2023-07-29T13:42:15;32.00;50.10
82231;DHT22;71832;45.138;9.816;2023-07-29T13:44:43;32.00;51.20
82231;DHT22;71832;45.138;9.816;2023-07-29T13:47:12;32.20;50.20
82231;DHT22;71832;45.138;9.816;2023-07-29T13:49:40;32.30;49.80
82231;DHT22;71832;45.138;9.816;2023-07-29T13:52:08;32.30;50.30
82231;DHT22;71832;45.138;9.816;2023-07-29T13:54:37;32.30;49.50
82231;DHT22;71832;45.138;9.816;2023-07-29T13:57:06;32.30;49.80
82231;DHT22;71832;45.138;9.816;2023-07-29T13:59:34;32.40;50.00
82231;DHT22;71832;45.138;9.816;2023-07-29T14:02:06;32.40;49.40
82231;DHT22;71832;45.138;9.816;2023-07-29T14:04:35;32.40;49.40
82231;DHT22;71832;45.138;9.816;2023-07-29T14:07:06;32.40;49.30
82231;DHT22;71832;45.138;9.816;2023-07-29T14:09:35;32.30;48.30
82231;DHT22;71832;45.138;9.816;2023-07-29T14:12:04;32.30;48.80
82231;DHT22;71832;45.138;9.816;2023-07-29T14:14:33;32.20;49.20
82231;DHT22;71832;45.138;9.816;2023-07-29T14:17:02;32.20;49.40
82231;DHT22;71832;45.138;9.816;2023-07-29T14:19:31;32.30;49.40
82231;DHT22;71832;45.138;9.816;2023-07-29T14:21:59;32.40;50.60
82231;DHT22;71832;45.138;9.816;2023-07-29T14:24:27;32.40;48.90
82231;DHT22;71832;45.138;9.816;2023-07-29T14:26:56;32.40;48.90
82231;DHT22;71832;45.138;9.816;2023-07-29T14:29:25;32.40;48.90
82231;DHT22;71832;45.138;9.816;2023-07-29T14:31:54;32.40;48.80
82231;DHT22;71832;45.138;9.816;2023-07-29T14:34:22;32.30;49.00
82231;DHT22;71832;45.138;9.816;2023-07-29T14:36:51;32.20;48.70
82231;DHT22;71832;45.138;9.816;2023-07-29T14:39:19;32.20;48.80
82231;DHT22;71832;45.138;9.816;2023-07-29T14:41:47;32.20;48.80
82231;DHT22;71832;45.138;9.816;2023-07-29T14:44:14;32.20;48.50
82231;DHT22;71832;45.138;9.816;2023-07-29T14:46:42;32.20;49.30
82231;DHT22;71832;45.138;9.816;2023-07-29T14:49:11;32.20;49.40
82231;DHT22;71832;45.138;9.816;2023-07-29T14:51:40;32.30;49.00
82231;DHT22;71832;45.138;9.816;2023-07-29T14:54:08;32.40;48.70
82231;DHT22;71832;45.138;9.816;2023-07-29T14:56:37;32.40;48.10
82231;DHT22;71832;45.138;9.816;2023-07-29T14:59:06;32.40;48.30
82231;DHT22;71832;45.138;9.816;2023-07-29T15:01:34;32.40;48.50
82231;DHT22;71832;45.138;9.816;2023-07-29T15:04:01;32.40;47.60
82231;DHT22;71832;45.138;9.816;2023-07-29T15:06:29;32.40;47.50
82231;DHT22;71832;45.138;9.816;2023-07-29T15:08:57;32.40;47.90
82231;DHT22;71832;45.138;9.816;2023-07-29T15:11:25;32.30;48.30
82231;DHT22;71832;45.138;9.816;2023-07-29T15:13:53;32.20;47.80
82231;DHT22;71832;45.138;9.816;2023-07-29T15:16:23;32.30;48.20
82231;DHT22;71832;45.138;9.816;2023-07-29T15:18:51;32.40;48.20
82231;DHT22;71832;45.138;9.816;2023-07-29T15:28:09;32.70;47.20
82231;DHT22;71832;45.138;9.816;2023-07-29T15:30:39;32.80;46.90
82231;DHT22;71832;45.138;9.816;2023-07-29T15:33:07;33.00;46.50
82231;DHT22;71832;45.138;9.816;2023-07-29T15:35:39;33.10;47.00
82231;DHT22;71832;45.138;9.816;2023-07-29T15:38:07;33.20;46.30
82231;DHT22;71832;45.138;9.816;2023-07-29T15:40:34;33.50;45.20
82231;DHT22;71832;45.138;9.816;2023-07-29T15:43:02;33.60;45.00
82231;DHT22;71832;45.138;9.816;2023-07-29T15:45:29;33.90;44.00
82231;DHT22;71832;45.138;9.816;2023-07-29T15:47:58;34.00;43.90
82231;DHT22;71832;45.138;9.816;2023-07-29T15:50:25;34.20;43.80
82231;DHT22;71832;45.138;9.816;2023-07-29T15:52:53;34.20;43.80
82231;DHT22;71832;45.138;9.816;2023-07-29T15:55:21;34.40;43.60
82231;DHT22;71832;45.138;9.816;2023-07-29T15:57:50;34.40;43.20
82231;DHT22;71832;45.138;9.816;2023-07-29T16:00:18;34.40;43.50
82231;DHT22;71832;45.138;9.816;2023-07-29T16:02:46;34.40;43.00
82231;DHT22;71832;45.138;9.816;2023-07-29T16:05:13;34.40;43.00
82231;DHT22;71832;45.138;9.816;2023-07-29T16:07:41;34.20;43.20
82231;DHT22;71832;45.138;9.816;2023-07-29T16:10:09;33.80;43.90
82231;DHT22;71832;45.138;9.816;2023-07-29T16:12:37;33.40;45.00
82231;DHT22;71832;45.138;9.816;2023-07-29T16:15:07;33.00;45.40
82231;DHT22;71832;45.138;9.816;2023-07-29T16:17:35;32.70;46.30
82231;DHT22;71832;45.138;9.816;2023-07-29T16:20:04;32.50;47.20